Time;durP1;ratioP1;P1;durP2;ratioP2;P2;SDS_P1;SDS_P2;PMS_P1;PMS_P2;Temp;Humidity;BMP_temperature;BMP_pressure;BME280_temperature;BME280_humidity;BME280_pressure;Samples;Min_cycle;Max_cycle;Signal;HPM_P1;HPM_P2
2022/08/13 00:01:11;;;;;;;;;;;21.90;57.00;;;;;;5089385;28;20026;-67
2022/08/13 00:03:38;;;;;;;;;;;21.80;57.40;;;;;;5094539;28;20449;-67
2022/08/13 00:06:08;;;;;;;;;;;21.70;56.40;;;;;;5090853;28;19916;-67
2022/08/13 00:08:35;;;;;;;;;;;21.70;56.80;;;;;;5085807;28;21339;-67
2022/08/13 00:11:01;;;;;;;;;;;21.70;56.00;;;;;;5084529;28;19911;-67
2022/08/13 00:13:27;;;;;;;;;;;21.70;56.70;;;;;;5082752;28;19941;-67
2022/08/13 00:15:52;;;;;;;;;;;21.70;58.60;;;;;;5056586;28;19917;-68
2022/08/13 00:18:19;;;;;;;;;;;21.60;59.10;;;;;;5074749;28;20672;-66
2022/08/13 00:20:48;;;;;;;;;;;21.50;60.20;;;;;;5083905;28;19920;-68
2022/08/13 00:23:14;;;;;;;;;;;21.30;61.60;;;;;;5078668;28;19919;-67
2022/08/13 00:25:40;;;;;;;;;;;21.20;62.80;;;;;;5079486;28;19916;-67
2022/08/13 00:28:06;;;;;;;;;;;21.00;63.50;;;;;;5086434;28;20011;-67
2022/08/13 00:30:33;;;;;;;;;;;21.00;64.00;;;;;;5085115;28;19919;-66
2022/08/13 00:33:12;;;;;;;;;;;20.90;64.90;;;;;;5078373;28;19912;-68
2022/08/13 00:35:41;;;;;;;;;;;20.90;65.60;;;;;;5069213;28;19986;-67
2022/08/13 00:38:08;;;;;;;;;;;20.70;67.20;;;;;;5063998;28;19924;-68
2022/08/13 00:40:34;;;;;;;;;;;20.60;68.00;;;;;;5085376;28;19916;-68
2022/08/13 00:43:03;;;;;;;;;;;20.50;69.10;;;;;;5079630;28;19919;-66
2022/08/13 00:45:30;;;;;;;;;;;20.40;70.30;;;;;;5079881;28;20007;-66
2022/08/13 00:50:39;;;;;;;;;;;20.20;71.80;;;;;;5080145;28;19938;-66
2022/08/13 00:53:05;;;;;;;;;;;20.20;71.70;;;;;;5085380;28;19920;-68
2022/08/13 00:55:31;;;;;;;;;;;20.10;71.80;;;;;;5085976;28;19916;-68
2022/08/13 00:57:58;;;;;;;;;;;20.10;72.20;;;;;;5084696;28;19916;-68
2022/08/13 01:00:25;;;;;;;;;;;20.10;74.00;;;;;;5085560;28;19923;-66
2022/08/13 01:02:52;;;;;;;;;;;20.00;75.10;;;;;;5089141;28;19912;-67
2022/08/13 01:05:19;;;;;;;;;;;20.00;75.90;;;;;;5083910;28;19919;-68
2022/08/13 01:07:45;;;;;;;;;;;19.90;76.00;;;;;;5070254;28;20007;-68
2022/08/13 01:10:12;;;;;;;;;;;19.80;77.60;;;;;;5079072;28;20737;-68
2022/08/13 01:12:38;;;;;;;;;;;19.80;77.30;;;;;;5084378;28;19935;-68
2022/08/13 01:15:05;;;;;;;;;;;19.70;78.80;;;;;;5086031;28;19960;-67
2022/08/13 01:17:32;;;;;;;;;;;19.80;79.40;;;;;;5089552;28;19930;-67
2022/08/13 01:19:58;;;;;;;;;;;20.00;77.60;;;;;;5083515;28;19920;-67
2022/08/13 01:22:24;;;;;;;;;;;20.00;76.20;;;;;;5082327;28;19916;-67
2022/08/13 01:24:50;;;;;;;;;;;20.00;75.80;;;;;;5085952;28;19984;-68
2022/08/13 01:27:21;;;;;;;;;;;19.80;76.50;;;;;;5079909;28;19919;-67
2022/08/13 01:29:47;;;;;;;;;;;19.70;77.60;;;;;;5081334;28;20004;-67
2022/08/13 01:32:15;;;;;;;;;;;19.60;78.30;;;;;;5084991;28;19923;-67
2022/08/13 01:34:42;;;;;;;;;;;19.60;79.10;;;;;;5078964;28;20358;-66
2022/08/13 01:37:08;;;;;;;;;;;19.60;79.20;;;;;;5089355;28;20363;-67
2022/08/13 01:39:33;;;;;;;;;;;19.50;79.40;;;;;;5088216;28;20724;-68
2022/08/13 01:41:59;;;;;;;;;;;19.40;80.40;;;;;;5093022;28;19920;-68
2022/08/13 01:44:25;;;;;;;;;;;19.30;81.60;;;;;;5090567;28;19931;-68
2022/08/13 01:52:30;;;;;;;;;;;19.30;80.10;;;;;;5087851;28;19926;-65
2022/08/13 01:54:56;;;;;;;;;;;19.30;78.40;;;;;;5074753;28;19913;-67
2022/08/13 01:57:22;;;;;;;;;;;19.40;77.50;;;;;;5092552;28;19920;-67
2022/08/13 01:59:48;;;;;;;;;;;19.40;77.00;;;;;;5088304;28;20353;-67
2022/08/13 02:02:14;;;;;;;;;;;19.40;76.60;;;;;;5085911;28;20460;-68
2022/08/13 02:04:41;;;;;;;;;;;19.50;75.70;;;;;;5077640;28;20377;-67
2022/08/13 02:07:08;;;;;;;;;;;19.50;73.70;;;;;;5092120;28;19911;-67
2022/08/13 02:09:34;;;;;;;;;;;19.70;75.20;;;;;;5088748;28;19912;-67
2022/08/13 02:11:59;;;;;;;;;;;19.80;74.30;;;;;;5090763;28;19919;-68
2022/08/13 02:14:27;;;;;;;;;;;19.90;73.20;;;;;;5090986;28;19919;-67
2022/08/13 02:16:53;;;;;;;;;;;19.90;69.80;;;;;;5092437;28;19916;-66
2022/08/13 02:19:18;;;;;;;;;;;20.00;70.50;;;;;;5089918;28;19924;-67
2022/08/13 02:21:44;;;;;;;;;;;20.00;69.90;;;;;;5095982;28;19958;-67
2022/08/13 02:24:13;;;;;;;;;;;20.10;69.80;;;;;;5089519;28;19916;-68
2022/08/13 02:26:42;;;;;;;;;;;20.10;69.10;;;;;;5088611;28;20544;-67
2022/08/13 02:29:08;;;;;;;;;;;20.00;69.20;;;;;;5063389;28;19919;-67
2022/08/13 02:31:34;;;;;;;;;;;20.00;69.40;;;;;;5057379;28;20323;-66
2022/08/13 02:34:01;;;;;;;;;;;19.80;70.20;;;;;;5058029;28;20027;-68
2022/08/13 02:36:27;;;;;;;;;;;19.60;71.70;;;;;;5082859;28;19920;-66
2022/08/13 02:38:57;;;;;;;;;;;19.40;72.60;;;;;;5083983;28;20431;-69
2022/08/13 02:41:42;;;;;;;;;;;19.40;73.40;;;;;;5084971;28;19923;-67
2022/08/13 02:44:10;;;;;;;;;;;19.50;73.20;;;;;;5081995;28;19932;-68
2022/08/13 02:46:39;;;;;;;;;;;19.40;72.40;;;;;;5086015;28;19912;-67
2022/08/13 02:49:05;;;;;;;;;;;19.40;72.60;;;;;;5077929;28;20346;-67
2022/08/13 02:51:31;;;;;;;;;;;19.30;73.00;;;;;;5085936;28;19920;-67
2022/08/13 02:53:59;;;;;;;;;;;19.10;73.60;;;;;;5077095;28;19923;-68
2022/08/13 02:56:26;;;;;;;;;;;19.00;74.50;;;;;;5086335;28;19920;-67
2022/08/13 02:58:52;;;;;;;;;;;18.90;75.40;;;;;;5058552;28;19934;-67
2022/08/13 03:01:18;;;;;;;;;;;18.90;76.20;;;;;;5075829;28;22460;-67
2022/08/13 03:03:44;;;;;;;;;;;18.80;77.20;;;;;;5060988;28;20354;-69
2022/08/13 03:06:09;;;;;;;;;;;18.90;77.90;;;;;;5081266;28;19912;-67
2022/08/13 03:08:35;;;;;;;;;;;18.80;78.70;;;;;;5083772;28;19935;-66
2022/08/13 03:11:01;;;;;;;;;;;18.70;80.30;;;;;;5082539;28;20282;-68
2022/08/13 03:13:29;;;;;;;;;;;18.70;80.50;;;;;;5062582;28;19995;-68
2022/08/13 03:15:56;;;;;;;;;;;18.60;80.70;;;;;;5077646;28;19920;-68
2022/08/13 03:18:23;;;;;;;;;;;18.60;81.20;;;;;;5080346;28;19924;-66
2022/08/13 03:20:49;;;;;;;;;;;18.50;82.00;;;;;;5078691;28;20370;-67
2022/08/13 03:23:15;;;;;;;;;;;18.50;82.30;;;;;;5078752;28;19920;-67
2022/08/13 03:25:40;;;;;;;;;;;18.40;82.70;;;;;;5074901;28;20358;-67
2022/08/13 03:28:06;;;;;;;;;;;18.40;83.20;;;;;;5074349;28;19923;-68
2022/08/13 03:30:34;;;;;;;;;;;18.40;83.20;;;;;;5077470;28;20011;-67
2022/08/13 03:33:07;;;;;;;;;;;18.50;83.00;;;;;;5080428;28;20052;-66
2022/08/13 03:35:33;;;;;;;;;;;18.40;84.40;;;;;;5080511;28;20618;-68
2022/08/13 03:37:58;;;;;;;;;;;18.40;83.50;;;;;;5081600;28;20405;-68
2022/08/13 03:40:25;;;;;;;;;;;18.40;83.90;;;;;;5084033;28;19924;-69
2022/08/13 03:42:51;;;;;;;;;;;18.40;83.50;;;;;;5078626;28;19917;-68
2022/08/13 03:45:17;;;;;;;;;;;18.40;82.60;;;;;;5074431;28;19924;-66
2022/08/13 03:47:43;;;;;;;;;;;18.40;82.50;;;;;;5086412;28;19926;-66
2022/08/13 03:50:10;;;;;;;;;;;18.40;83.10;;;;;;5079417;28;19939;-66
2022/08/13 03:52:36;;;;;;;;;;;18.40;83.80;;;;;;5075411;28;20365;-67
2022/08/13 03:55:04;;;;;;;;;;;18.30;84.00;;;;;;5054179;28;19931;-67
2022/08/13 03:57:30;;;;;;;;;;;18.30;83.80;;;;;;5077506;28;19993;-66
2022/08/13 03:59:57;;;;;;;;;;;18.30;84.30;;;;;;5071407;28;20273;-67
2022/08/13 04:02:23;;;;;;;;;;;18.40;83.90;;;;;;5075425;28;19912;-67
2022/08/13 04:04:50;;;;;;;;;;;18.50;83.90;;;;;;5080055;28;19928;-67
2022/08/13 04:07:16;;;;;;;;;;;18.50;82.90;;;;;;5055704;28;20416;-67
2022/08/13 04:09:43;;;;;;;;;;;18.50;83.40;;;;;;5071578;28;20447;-67
2022/08/13 04:12:11;;;;;;;;;;;18.50;84.70;;;;;;5077307;28;19920;-68
2022/08/13 04:14:39;;;;;;;;;;;18.40;84.70;;;;;;5081544;28;19926;-66
2022/08/13 04:17:05;;;;;;;;;;;18.50;84.20;;;;;;5086603;28;19916;-68
2022/08/13 04:19:33;;;;;;;;;;;18.40;82.80;;;;;;5084885;28;20015;-67
2022/08/13 04:21:58;;;;;;;;;;;18.50;83.00;;;;;;5089205;28;19916;-68
2022/08/13 04:24:27;;;;;;;;;;;18.50;82.50;;;;;;5089811;28;20851;-66
2022/08/13 04:26:54;;;;;;;;;;;18.50;82.70;;;;;;5096239;28;19924;-68
2022/08/13 04:29:20;;;;;;;;;;;18.50;81.80;;;;;;5089550;28;19913;-66
2022/08/13 04:31:45;;;;;;;;;;;18.50;81.60;;;;;;5086244;28;19964;-68
2022/08/13 04:34:11;;;;;;;;;;;18.50;81.50;;;;;;5087380;28;19930;-67
2022/08/13 04:36:36;;;;;;;;;;;18.50;81.90;;;;;;5097002;28;19912;-68
2022/08/13 04:39:02;;;;;;;;;;;18.50;81.70;;;;;;5095201;28;19920;-67
2022/08/13 04:41:27;;;;;;;;;;;18.50;81.40;;;;;;5084214;28;20414;-67
2022/08/13 04:43:53;;;;;;;;;;;18.50;81.50;;;;;;5064125;28;19920;-68
2022/08/13 04:46:19;;;;;;;;;;;18.50;81.30;;;;;;5079179;28;19913;-68
2022/08/13 04:48:44;;;;;;;;;;;18.50;82.10;;;;;;5091075;28;19912;-67
2022/08/13 04:51:10;;;;;;;;;;;18.60;82.30;;;;;;5093894;28;19926;-67
2022/08/13 04:53:36;;;;;;;;;;;18.50;81.50;;;;;;5090334;28;19911;-67
2022/08/13 04:56:02;;;;;;;;;;;18.50;81.30;;;;;;5092777;28;19919;-68
2022/08/13 04:58:35;;;;;;;;;;;18.60;82.30;;;;;;5090866;28;20029;-68
2022/08/13 05:01:01;;;;;;;;;;;18.60;81.20;;;;;;5085986;28;19919;-68
2022/08/13 05:03:29;;;;;;;;;;;18.60;81.70;;;;;;5094200;28;20270;-68
2022/08/13 05:05:55;;;;;;;;;;;18.60;81.40;;;;;;5085853;28;19923;-67
2022/08/13 05:08:20;;;;;;;;;;;18.60;81.60;;;;;;5081291;28;19916;-67
2022/08/13 05:10:47;;;;;;;;;;;18.60;81.60;;;;;;5086182;28;19916;-67
2022/08/13 05:13:20;;;;;;;;;;;18.60;81.80;;;;;;5086567;28;19940;-66
2022/08/13 05:15:46;;;;;;;;;;;18.60;82.10;;;;;;5084373;28;19912;-67
2022/08/13 05:18:11;;;;;;;;;;;18.60;82.60;;;;;;5079757;28;20408;-67
2022/08/13 05:20:39;;;;;;;;;;;18.50;83.20;;;;;;5081103;28;19924;-67
2022/08/13 05:23:08;;;;;;;;;;;18.50;83.10;;;;;;5078934;28;19926;-67
2022/08/13 05:25:34;;;;;;;;;;;18.50;83.80;;;;;;5078032;28;19912;-68
2022/08/13 05:28:00;;;;;;;;;;;18.40;84.80;;;;;;5090418;28;19919;-67
2022/08/13 05:30:26;;;;;;;;;;;18.40;85.30;;;;;;5088778;28;19970;-68
2022/08/13 05:32:57;;;;;;;;;;;18.50;85.50;;;;;;5086756;28;20263;-66
2022/08/13 05:35:23;;;;;;;;;;;18.40;86.10;;;;;;5083741;28;19912;-68
2022/08/13 05:37:49;;;;;;;;;;;18.50;86.70;;;;;;5090207;28;19922;-67
2022/08/13 05:40:14;;;;;;;;;;;18.50;87.00;;;;;;5093807;28;19916;-67
2022/08/13 05:42:40;;;;;;;;;;;18.50;88.10;;;;;;5097162;28;19920;-67
2022/08/13 05:45:08;;;;;;;;;;;18.50;88.10;;;;;;5085961;28;19912;-68
2022/08/13 05:47:35;;;;;;;;;;;18.60;88.20;;;;;;5086276;28;19963;-68
2022/08/13 05:50:01;;;;;;;;;;;18.70;88.40;;;;;;5077650;28;19915;-67
2022/08/13 05:52:27;;;;;;;;;;;18.70;87.50;;;;;;5092467;28;20479;-69
2022/08/13 05:54:55;;;;;;;;;;;18.80;87.50;;;;;;5093114;28;19921;-68
2022/08/13 05:57:21;;;;;;;;;;;18.90;87.20;;;;;;5099637;28;19924;-67
2022/08/13 06:05:15;;;;;;;;;;;19.10;86.80;;;;;;5094626;28;19995;-68
2022/08/13 06:07:42;;;;;;;;;;;19.00;87.10;;;;;;5097496;28;19934;-67
2022/08/13 06:10:08;;;;;;;;;;;19.10;86.80;;;;;;5090552;28;19920;-67
2022/08/13 06:12:34;;;;;;;;;;;19.20;87.00;;;;;;5091733;28;19935;-66
2022/08/13 06:14:59;;;;;;;;;;;19.30;87.30;;;;;;5090959;28;19912;-67
2022/08/13 06:17:25;;;;;;;;;;;19.30;87.40;;;;;;5093864;28;19916;-68
2022/08/13 06:19:51;;;;;;;;;;;19.40;87.10;;;;;;5085985;28;19948;-68
2022/08/13 06:22:19;;;;;;;;;;;19.40;87.80;;;;;;5092061;28;20361;-68
2022/08/13 06:24:45;;;;;;;;;;;19.50;88.20;;;;;;5097462;28;19966;-67
2022/08/13 06:27:11;;;;;;;;;;;19.50;88.20;;;;;;5093293;28;19919;-68
2022/08/13 06:29:40;;;;;;;;;;;19.60;88.70;;;;;;5065948;28;20018;-66
2022/08/13 06:32:06;;;;;;;;;;;19.60;88.80;;;;;;5075606;28;20479;-68
2022/08/13 06:34:34;;;;;;;;;;;19.60;89.30;;;;;;5088508;28;19999;-67
2022/08/13 06:37:02;;;;;;;;;;;19.60;90.10;;;;;;5094564;28;19912;-68
2022/08/13 06:39:29;;;;;;;;;;;19.80;90.10;;;;;;5091987;28;19930;-68
2022/08/13 06:41:55;;;;;;;;;;;19.90;89.70;;;;;;5085591;28;19944;-66
2022/08/13 06:44:21;;;;;;;;;;;19.90;89.90;;;;;;5087007;28;19965;-68
2022/08/13 06:46:47;;;;;;;;;;;20.00;90.20;;;;;;5061051;28;19920;-68
2022/08/13 06:49:12;;;;;;;;;;;20.10;89.40;;;;;;5078389;28;19913;-68
2022/08/13 06:51:38;;;;;;;;;;;20.20;89.40;;;;;;5075922;28;19919;-66
2022/08/13 06:54:08;;;;;;;;;;;20.30;89.40;;;;;;5065681;28;20254;-68
2022/08/13 06:56:34;;;;;;;;;;;20.40;88.70;;;;;;5080051;28;21199;-68
2022/08/13 06:59:00;;;;;;;;;;;20.30;89.00;;;;;;5080554;28;19931;-67
2022/08/13 07:01:27;;;;;;;;;;;20.40;89.20;;;;;;5077779;28;19920;-68
2022/08/13 07:03:54;;;;;;;;;;;20.50;89.70;;;;;;5086113;28;19920;-67
2022/08/13 07:06:24;;;;;;;;;;;20.50;89.60;;;;;;5082086;28;19912;-67
2022/08/13 07:08:49;;;;;;;;;;;20.60;90.10;;;;;;5081741;28;19920;-68
2022/08/13 07:11:22;;;;;;;;;;;20.60;90.20;;;;;;5089362;28;20423;-67
2022/08/13 07:13:51;;;;;;;;;;;20.70;90.20;;;;;;5091055;28;19979;-68
2022/08/13 07:16:18;;;;;;;;;;;20.80;90.10;;;;;;5091121;28;20270;-67
2022/08/13 07:18:45;;;;;;;;;;;20.90;89.80;;;;;;5084842;28;19921;-68
2022/08/13 07:21:11;;;;;;;;;;;21.00;89.90;;;;;;5070615;28;19959;-65
2022/08/13 07:23:38;;;;;;;;;;;21.10;89.70;;;;;;5081451;28;19912;-66
2022/08/13 07:26:04;;;;;;;;;;;21.10;90.00;;;;;;5060266;28;19935;-66
2022/08/13 07:28:30;;;;;;;;;;;21.10;90.00;;;;;;5085057;28;20276;-67
2022/08/13 07:30:57;;;;;;;;;;;21.10;90.20;;;;;;5085328;28;22445;-67
2022/08/13 07:33:22;;;;;;;;;;;21.30;90.30;;;;;;5087273;28;19920;-66
2022/08/13 07:35:48;;;;;;;;;;;21.30;89.40;;;;;;5095708;28;19927;-66
2022/08/13 07:38:15;;;;;;;;;;;21.40;89.60;;;;;;5082397;28;20378;-66
2022/08/13 07:40:41;;;;;;;;;;;21.40;89.10;;;;;;5084278;28;19920;-69
2022/08/13 07:43:07;;;;;;;;;;;21.50;89.50;;;;;;5094436;28;19920;-67
2022/08/13 07:45:33;;;;;;;;;;;21.50;89.90;;;;;;5093723;28;19919;-67
2022/08/13 07:47:59;;;;;;;;;;;21.50;89.10;;;;;;5090556;28;20265;-67
2022/08/13 07:50:24;;;;;;;;;;;21.60;89.20;;;;;;5089742;28;20275;-67
2022/08/13 07:52:57;;;;;;;;;;;21.60;89.30;;;;;;5091646;28;19912;-66
2022/08/13 07:55:23;;;;;;;;;;;21.70;88.40;;;;;;5096839;28;19947;-67
2022/08/13 07:57:49;;;;;;;;;;;21.90;87.90;;;;;;5089461;28;19916;-66
2022/08/13 08:00:24;;;;;;;;;;;22.10;85.40;;;;;;5092849;28;19922;-67
2022/08/13 08:03:00;;;;;;;;;;;22.10;85.40;;;;;;5100181;28;19923;-67
2022/08/13 08:05:27;;;;;;;;;;;22.20;85.80;;;;;;5094149;28;20326;-67
2022/08/13 08:07:53;;;;;;;;;;;22.30;85.30;;;;;;5089913;28;20003;-67
2022/08/13 08:10:20;;;;;;;;;;;22.30;84.40;;;;;;5085572;28;20006;-67
2022/08/13 08:12:46;;;;;;;;;;;22.50;84.10;;;;;;5090201;28;19922;-68
2022/08/13 08:15:12;;;;;;;;;;;22.70;82.40;;;;;;5069412;28;22402;-67
2022/08/13 08:17:40;;;;;;;;;;;22.70;82.40;;;;;;5082728;28;19925;-67
2022/08/13 08:20:06;;;;;;;;;;;22.80;83.00;;;;;;5074263;28;19911;-67
2022/08/13 08:22:33;;;;;;;;;;;23.00;81.30;;;;;;5089665;28;20362;-68
2022/08/13 08:24:59;;;;;;;;;;;22.90;81.50;;;;;;5086556;28;19992;-67
2022/08/13 08:27:25;;;;;;;;;;;23.00;81.30;;;;;;5088510;28;19973;-68
2022/08/13 08:29:52;;;;;;;;;;;23.10;81.50;;;;;;5088812;28;19934;-66
2022/08/13 08:32:19;;;;;;;;;;;23.10;82.00;;;;;;5070968;28;20343;-66
2022/08/13 08:34:46;;;;;;;;;;;23.20;81.60;;;;;;5069236;28;20292;-68
2022/08/13 08:42:35;;;;;;;;;;;23.20;82.10;;;;;;5078182;28;19917;-66
2022/08/13 08:42:49;;;;;;;;;;;23.20;82.50;;;;;;5085664;28;19919;-67
2022/08/13 08:45:18;;;;;;;;;;;23.30;82.70;;;;;;5076912;28;20553;-67
2022/08/13 08:47:44;;;;;;;;;;;23.40;83.20;;;;;;5078737;28;20017;-67
2022/08/13 08:50:10;;;;;;;;;;;23.60;81.60;;;;;;5077355;28;20358;-68
2022/08/13 08:55:24;;;;;;;;;;;23.90;80.80;;;;;;5084467;28;19919;-67
2022/08/13 08:57:51;;;;;;;;;;;24.00;80.50;;;;;;5087468;28;19920;-67
2022/08/13 09:00:18;;;;;;;;;;;24.20;80.10;;;;;;5089934;28;19920;-68
2022/08/13 09:02:46;;;;;;;;;;;24.40;78.20;;;;;;5093761;28;20001;-67
2022/08/13 09:05:13;;;;;;;;;;;24.40;77.50;;;;;;5081367;28;19919;-67
2022/08/13 09:07:41;;;;;;;;;;;24.60;77.00;;;;;;5083742;28;19965;-66
2022/08/13 09:10:09;;;;;;;;;;;24.60;76.30;;;;;;5085208;28;19967;-67
2022/08/13 09:12:36;;;;;;;;;;;24.70;76.20;;;;;;5085712;28;19946;-68
2022/08/13 09:15:03;;;;;;;;;;;24.80;76.00;;;;;;5083615;28;19919;-68
2022/08/13 09:17:28;;;;;;;;;;;24.90;74.40;;;;;;5080016;28;20257;-68
2022/08/13 09:19:55;;;;;;;;;;;24.80;71.40;;;;;;5044076;28;20367;-67
2022/08/13 09:22:21;;;;;;;;;;;25.00;72.30;;;;;;5069656;28;19913;-67
2022/08/13 09:24:47;;;;;;;;;;;25.30;72.90;;;;;;5049286;28;20255;-66
2022/08/13 09:27:16;;;;;;;;;;;25.40;71.40;;;;;;5041298;28;19963;-67
2022/08/13 09:29:42;;;;;;;;;;;25.60;70.20;;;;;;5050324;28;21027;-67
2022/08/13 09:32:08;;;;;;;;;;;25.70;68.90;;;;;;5043713;28;19961;-66
2022/08/13 09:34:34;;;;;;;;;;;25.60;68.80;;;;;;5040249;28;19926;-67
2022/08/13 09:37:01;;;;;;;;;;;25.70;69.50;;;;;;5048122;28;20024;-67
2022/08/13 09:39:32;;;;;;;;;;;25.90;67.80;;;;;;5044941;28;20309;-65
2022/08/13 09:42:00;;;;;;;;;;;26.00;67.70;;;;;;5034088;28;19972;-67
2022/08/13 09:44:26;;;;;;;;;;;26.00;67.70;;;;;;5046978;28;19924;-67
2022/08/13 09:46:52;;;;;;;;;;;26.00;64.90;;;;;;5044470;28;19974;-68
2022/08/13 09:49:20;;;;;;;;;;;26.10;66.40;;;;;;5047316;28;20287;-67
2022/08/13 09:51:45;;;;;;;;;;;26.20;66.60;;;;;;5054253;28;19942;-66
2022/08/13 09:54:11;;;;;;;;;;;26.30;64.70;;;;;;5044586;28;19921;-66
2022/08/13 09:56:37;;;;;;;;;;;26.40;65.80;;;;;;5041962;28;20442;-69
2022/08/13 09:59:04;;;;;;;;;;;26.50;64.40;;;;;;5054312;28;19924;-67
2022/08/13 10:01:29;;;;;;;;;;;26.60;63.50;;;;;;5053237;28;19917;-67
2022/08/13 10:03:56;;;;;;;;;;;26.70;62.50;;;;;;5049265;28;19927;-66
2022/08/13 10:06:21;;;;;;;;;;;26.70;61.60;;;;;;5059238;28;19913;-67
2022/08/13 10:08:47;;;;;;;;;;;26.70;62.10;;;;;;5051687;28;20402;-68
2022/08/13 10:11:14;;;;;;;;;;;26.80;61.40;;;;;;5051205;28;19928;-67
2022/08/13 10:13:40;;;;;;;;;;;26.80;61.20;;;;;;5051610;28;20373;-67
2022/08/13 10:16:05;;;;;;;;;;;26.80;60.10;;;;;;5052015;28;19912;-66
2022/08/13 10:18:31;;;;;;;;;;;26.90;61.10;;;;;;5060638;28;19929;-67
2022/08/13 10:20:57;;;;;;;;;;;27.00;60.10;;;;;;5080108;28;19921;-66
2022/08/13 10:23:23;;;;;;;;;;;27.20;58.50;;;;;;5084360;28;19934;-67
2022/08/13 10:25:52;;;;;;;;;;;27.30;58.00;;;;;;5086589;28;19912;-66
2022/08/13 10:28:17;;;;;;;;;;;27.40;57.40;;;;;;5081552;28;19952;-67
2022/08/13 10:30:43;;;;;;;;;;;27.60;56.90;;;;;;5065793;28;20757;-67
2022/08/13 10:33:09;;;;;;;;;;;27.60;56.70;;;;;;5082188;28;20400;-66
2022/08/13 10:35:35;;;;;;;;;;;27.70;56.50;;;;;;5077566;28;20289;-68
2022/08/13 10:38:00;;;;;;;;;;;27.70;55.80;;;;;;5080069;28;19924;-67
2022/08/13 10:40:26;;;;;;;;;;;27.70;55.60;;;;;;5076987;28;19916;-67
2022/08/13 10:42:52;;;;;;;;;;;27.90;54.30;;;;;;5060186;28;19999;-67
2022/08/13 10:45:23;;;;;;;;;;;28.00;53.00;;;;;;5074776;28;20022;-65
2022/08/13 10:47:50;;;;;;;;;;;28.00;52.50;;;;;;5061316;28;19912;-67
2022/08/13 10:50:16;;;;;;;;;;;28.10;53.30;;;;;;5073084;28;19992;-66
2022/08/13 10:52:42;;;;;;;;;;;28.10;52.00;;;;;;5080746;28;19913;-67
2022/08/13 10:55:12;;;;;;;;;;;28.20;52.00;;;;;;5073721;28;20304;-67
2022/08/13 10:57:43;;;;;;;;;;;28.30;51.80;;;;;;5073921;28;19949;-66
2022/08/13 11:00:11;;;;;;;;;;;28.40;51.30;;;;;;5080371;28;19916;-67
2022/08/13 11:02:37;;;;;;;;;;;28.40;51.20;;;;;;5090331;28;20956;-69
2022/08/13 11:05:06;;;;;;;;;;;28.40;50.40;;;;;;5078560;28;19916;-69
2022/08/13 11:07:33;;;;;;;;;;;28.50;51.20;;;;;;5074217;28;20315;-66
2022/08/13 11:09:59;;;;;;;;;;;28.50;51.20;;;;;;5082990;28;19919;-68
2022/08/13 11:12:25;;;;;;;;;;;28.70;50.30;;;;;;5081558;28;19913;-67
2022/08/13 11:14:51;;;;;;;;;;;28.70;48.00;;;;;;5079393;28;20400;-67
2022/08/13 11:17:17;;;;;;;;;;;28.80;47.80;;;;;;5087742;28;20287;-68
2022/08/13 11:19:45;;;;;;;;;;;28.90;47.00;;;;;;5076573;28;19990;-66
2022/08/13 11:22:11;;;;;;;;;;;29.10;47.20;;;;;;5071523;28;19919;-65
2022/08/13 11:24:37;;;;;;;;;;;29.10;45.70;;;;;;5076721;28;19911;-67
2022/08/13 11:27:02;;;;;;;;;;;29.10;44.80;;;;;;5079006;28;19962;-67
2022/08/13 11:29:30;;;;;;;;;;;29.20;44.70;;;;;;5083243;28;20023;-67
2022/08/13 11:31:56;;;;;;;;;;;29.20;45.20;;;;;;5079803;28;19996;-67
2022/08/13 11:34:21;;;;;;;;;;;29.20;45.10;;;;;;5085376;28;20008;-68
2022/08/13 11:36:47;;;;;;;;;;;29.40;44.60;;;;;;5097555;28;19961;-67
2022/08/13 11:39:12;;;;;;;;;;;29.60;43.40;;;;;;5084296;28;19962;-68
2022/08/13 11:41:38;;;;;;;;;;;29.70;42.70;;;;;;5102061;28;19950;-67
2022/08/13 11:44:04;;;;;;;;;;;29.90;42.70;;;;;;5100773;28;19923;-67
2022/08/13 11:46:29;;;;;;;;;;;29.80;40.40;;;;;;5097820;28;19912;-67
2022/08/13 11:48:55;;;;;;;;;;;29.90;40.30;;;;;;5107201;28;19912;-68
2022/08/13 11:51:21;;;;;;;;;;;29.90;40.90;;;;;;5089092;28;19920;-67
2022/08/13 11:53:47;;;;;;;;;;;29.90;42.20;;;;;;5097431;28;20003;-70
2022/08/13 11:56:12;;;;;;;;;;;29.80;40.20;;;;;;5085963;28;19939;-67
2022/08/13 11:58:38;;;;;;;;;;;29.90;39.30;;;;;;5103290;28;19930;-67
2022/08/13 12:01:06;;;;;;;;;;;29.80;39.90;;;;;;5095427;28;19912;-67
2022/08/13 12:03:32;;;;;;;;;;;30.00;39.60;;;;;;5101480;28;19912;-67
2022/08/13 12:05:58;;;;;;;;;;;30.10;39.00;;;;;;5091105;28;19912;-68
2022/08/13 12:08:25;;;;;;;;;;;30.20;37.20;;;;;;5095274;28;20318;-69
2022/08/13 12:10:51;;;;;;;;;;;30.20;38.30;;;;;;5090208;28;19924;-72
2022/08/13 12:13:16;;;;;;;;;;;30.20;37.90;;;;;;5079088;28;19924;-70
2022/08/13 12:15:42;;;;;;;;;;;30.20;37.30;;;;;;5081678;28;20042;-66
2022/08/13 12:18:11;;;;;;;;;;;30.20;36.60;;;;;;5086722;28;20388;-67
2022/08/13 12:20:37;;;;;;;;;;;30.30;37.10;;;;;;5067699;28;20400;-66
2022/08/13 12:23:03;;;;;;;;;;;30.50;36.20;;;;;;5080058;28;19927;-66
2022/08/13 12:25:29;;;;;;;;;;;30.60;34.70;;;;;;5070640;28;20251;-67
2022/08/13 12:28:14;;;;;;;;;;;30.60;35.20;;;;;;5068850;28;19912;-67
2022/08/13 12:30:40;;;;;;;;;;;30.70;35.60;;;;;;5086069;28;19935;-66
2022/08/13 12:33:05;;;;;;;;;;;30.70;34.80;;;;;;5082733;28;20385;-66
2022/08/13 12:35:32;;;;;;;;;;;30.70;35.60;;;;;;5087423;28;20328;-66
2022/08/13 12:37:57;;;;;;;;;;;30.80;34.70;;;;;;5088422;28;20510;-67
2022/08/13 12:40:23;;;;;;;;;;;30.90;36.80;;;;;;5080954;28;19916;-67
2022/08/13 12:42:49;;;;;;;;;;;30.80;36.60;;;;;;5078810;28;19918;-68
2022/08/13 12:45:16;;;;;;;;;;;30.70;33.90;;;;;;5078940;28;20183;-68
2022/08/13 12:47:45;;;;;;;;;;;30.80;33.20;;;;;;5072966;28;19919;-67
2022/08/13 12:50:11;;;;;;;;;;;30.90;34.60;;;;;;5071833;28;19920;-66
2022/08/13 12:52:36;;;;;;;;;;;31.10;33.50;;;;;;5076678;28;19975;-65
2022/08/13 12:55:02;;;;;;;;;;;31.20;34.10;;;;;;5074433;28;19995;-65
2022/08/13 12:57:28;;;;;;;;;;;31.30;31.50;;;;;;5086336;28;20012;-67
2022/08/13 12:59:54;;;;;;;;;;;31.30;31.70;;;;;;5092035;28;20032;-67
2022/08/13 13:02:19;;;;;;;;;;;31.40;31.60;;;;;;5082825;28;19923;-67
2022/08/13 13:04:45;;;;;;;;;;;31.60;31.50;;;;;;5097718;28;19922;-67
2022/08/13 13:07:10;;;;;;;;;;;31.60;30.50;;;;;;5084213;28;19926;-67
2022/08/13 13:09:36;;;;;;;;;;;31.60;29.80;;;;;;5086598;28;20245;-66
2022/08/13 13:12:02;;;;;;;;;;;31.60;29.90;;;;;;5085563;28;19916;-66
2022/08/13 13:14:27;;;;;;;;;;;31.70;29.10;;;;;;5082939;28;20392;-66
2022/08/13 13:16:53;;;;;;;;;;;31.80;30.90;;;;;;5084747;28;20645;-65
2022/08/13 13:19:20;;;;;;;;;;;31.90;28.90;;;;;;5083750;28;19981;-66
2022/08/13 13:21:46;;;;;;;;;;;31.70;28.90;;;;;;5081223;28;19922;-67
2022/08/13 13:24:15;;;;;;;;;;;31.90;28.80;;;;;;5080691;28;19916;-68
2022/08/13 13:26:41;;;;;;;;;;;32.00;28.70;;;;;;5080627;28;19920;-68
2022/08/13 13:29:10;;;;;;;;;;;32.00;28.00;;;;;;5078140;28;19920;-68
2022/08/13 13:31:37;;;;;;;;;;;32.00;27.80;;;;;;5068668;28;19920;-67
2022/08/13 13:34:04;;;;;;;;;;;32.10;27.60;;;;;;5088695;28;19924;-67
2022/08/13 13:36:30;;;;;;;;;;;32.10;26.70;;;;;;5086490;28;19912;-66
2022/08/13 13:38:55;;;;;;;;;;;32.10;26.90;;;;;;5088506;28;20239;-66
2022/08/13 13:41:21;;;;;;;;;;;32.20;27.00;;;;;;5061625;28;19977;-67
2022/08/13 13:43:51;;;;;;;;;;;32.30;26.70;;;;;;5086168;28;19919;-68
2022/08/13 13:46:16;;;;;;;;;;;32.50;26.90;;;;;;5074005;28;19916;-68
2022/08/13 13:48:42;;;;;;;;;;;32.50;26.00;;;;;;5085315;28;19922;-66
2022/08/13 13:51:09;;;;;;;;;;;32.50;29.30;;;;;;5086571;28;20019;-67
2022/08/13 13:53:35;;;;;;;;;;;32.50;26.80;;;;;;5075020;28;20493;-65
2022/08/13 13:56:02;;;;;;;;;;;32.50;25.10;;;;;;5086596;28;19946;-67
2022/08/13 13:58:27;;;;;;;;;;;32.50;25.30;;;;;;5082006;28;20425;-65
2022/08/13 14:00:54;;;;;;;;;;;32.70;24.50;;;;;;5083329;28;19936;-67
2022/08/13 14:03:23;;;;;;;;;;;32.80;24.50;;;;;;5080034;28;19919;-66
2022/08/13 14:05:49;;;;;;;;;;;32.70;25.70;;;;;;5084202;28;19912;-66
2022/08/13 14:08:15;;;;;;;;;;;32.50;26.70;;;;;;5093666;28;19916;-67
2022/08/13 14:10:42;;;;;;;;;;;32.50;25.40;;;;;;5088444;28;19939;-66
2022/08/13 14:13:08;;;;;;;;;;;32.70;26.60;;;;;;5091559;28;19920;-66
2022/08/13 14:15:34;;;;;;;;;;;32.80;24.10;;;;;;5084331;28;19912;-67
2022/08/13 14:18:01;;;;;;;;;;;32.90;23.80;;;;;;5087391;28;19993;-67
2022/08/13 14:20:27;;;;;;;;;;;32.80;25.10;;;;;;5086221;28;20014;-66
2022/08/13 14:22:52;;;;;;;;;;;32.80;23.80;;;;;;5081459;28;20014;-67
2022/08/13 14:25:18;;;;;;;;;;;32.70;23.60;;;;;;5073526;28;19911;-67
2022/08/13 14:27:44;;;;;;;;;;;32.70;25.80;;;;;;5079877;28;20042;-68
2022/08/13 14:30:11;;;;;;;;;;;32.70;22.90;;;;;;5081493;28;19950;-68
2022/08/13 14:32:37;;;;;;;;;;;32.70;22.80;;;;;;5073355;28;19912;-67